sensor_id;sensor_type;location;lat;lon;timestamp;P1;durP1;ratioP1;P2;durP2;ratioP2
76259;SDS011;65076;52.362;6.588;2024-01-27T00:02:03;19.50;;;5.95;;
76259;SDS011;65076;52.362;6.588;2024-01-27T00:09:38;26.83;;;8.70;;
76259;SDS011;65076;52.362;6.588;2024-01-27T00:12:12;25.80;;;8.23;;
76259;SDS011;65076;52.362;6.588;2024-01-27T00:19:44;24.33;;;6.65;;
76259;SDS011;65076;52.362;6.588;2024-01-27T00:22:16;31.65;;;9.63;;
76259;SDS011;65076;52.362;6.588;2024-01-27T00:24:50;23.27;;;7.18;;
76259;SDS011;65076;52.362;6.588;2024-01-27T00:32:20;31.35;;;9.20;;
76259;SDS011;65076;52.362;6.588;2024-01-27T00:37:20;47.33;;;10.82;;
76259;SDS011;65076;52.362;6.588;2024-01-27T00:39:57;36.25;;;9.48;;
76259;SDS011;65076;52.362;6.588;2024-01-27T00:47:27;32.88;;;10.05;;
76259;SDS011;65076;52.362;6.588;2024-01-27T00:54:59;30.05;;;7.45;;
76259;SDS011;65076;52.362;6.588;2024-01-27T00:59:59;46.40;;;13.68;;
76259;SDS011;65076;52.362;6.588;2024-01-27T01:02:31;16.58;;;5.50;;
76259;SDS011;65076;52.362;6.588;2024-01-27T01:25:11;36.00;;;10.55;;
76259;SDS011;65076;52.362;6.588;2024-01-27T01:30:12;26.05;;;7.70;;
76259;SDS011;65076;52.362;6.588;2024-01-27T01:32:44;25.17;;;9.75;;
76259;SDS011;65076;52.362;6.588;2024-01-27T01:37:49;47.58;;;13.82;;
76259;SDS011;65076;52.362;6.588;2024-01-27T01:42:53;32.33;;;10.27;;
76259;SDS011;65076;52.362;6.588;2024-01-27T01:47:52;23.38;;;8.25;;
76259;SDS011;65076;52.362;6.588;2024-01-27T01:52:52;27.83;;;7.47;;
76259;SDS011;65076;52.362;6.588;2024-01-27T01:55:25;21.27;;;5.95;;
76259;SDS011;65076;52.362;6.588;2024-01-27T02:03:01;12.32;;;4.05;;
76259;SDS011;65076;52.362;6.588;2024-01-27T02:13:12;9.38;;;3.00;;
76259;SDS011;65076;52.362;6.588;2024-01-27T02:18:19;7.03;;;1.60;;
76259;SDS011;65076;52.362;6.588;2024-01-27T02:23:19;11.77;;;2.78;;
76259;SDS011;65076;52.362;6.588;2024-01-27T02:25:54;8.02;;;2.03;;
76259;SDS011;65076;52.362;6.588;2024-01-27T02:30:54;11.23;;;3.00;;
76259;SDS011;65076;52.362;6.588;2024-01-27T02:33:28;5.90;;;2.50;;
76259;SDS011;65076;52.362;6.588;2024-01-27T02:41:05;8.68;;;2.20;;
76259;SDS011;65076;52.362;6.588;2024-01-27T02:48:40;12.27;;;2.13;;
76259;SDS011;65076;52.362;6.588;2024-01-27T02:51:12;9.07;;;1.85;;
76259;SDS011;65076;52.362;6.588;2024-01-27T02:58:47;14.10;;;2.42;;
76259;SDS011;65076;52.362;6.588;2024-01-27T03:16:30;8.10;;;2.53;;
76259;SDS011;65076;52.362;6.588;2024-01-27T03:19:02;11.75;;;2.70;;
76259;SDS011;65076;52.362;6.588;2024-01-27T03:24:13;10.45;;;2.88;;
76259;SDS011;65076;52.362;6.588;2024-01-27T03:31:48;7.13;;;2.90;;
76259;SDS011;65076;52.362;6.588;2024-01-27T03:36:48;12.70;;;3.13;;
76259;SDS011;65076;52.362;6.588;2024-01-27T03:42:04;9.35;;;3.40;;
76259;SDS011;65076;52.362;6.588;2024-01-27T03:47:04;7.65;;;3.03;;
76259;SDS011;65076;52.362;6.588;2024-01-27T03:49:36;10.68;;;3.10;;
76259;SDS011;65076;52.362;6.588;2024-01-27T03:57:13;12.77;;;2.97;;
76259;SDS011;65076;52.362;6.588;2024-01-27T03:59:45;10.38;;;3.13;;
76259;SDS011;65076;52.362;6.588;2024-01-27T04:12:25;8.60;;;2.53;;
76259;SDS011;65076;52.362;6.588;2024-01-27T04:30:02;13.35;;;3.22;;
76259;SDS011;65076;52.362;6.588;2024-01-27T04:35:04;11.70;;;2.67;;
76259;SDS011;65076;52.362;6.588;2024-01-27T04:37:39;12.30;;;2.58;;
76259;SDS011;65076;52.362;6.588;2024-01-27T04:52:52;9.73;;;3.83;;
76259;SDS011;65076;52.362;6.588;2024-01-27T04:57:52;8.60;;;3.00;;
76259;SDS011;65076;52.362;6.588;2024-01-27T05:00:29;7.45;;;2.72;;
76259;SDS011;65076;52.362;6.588;2024-01-27T05:08:01;14.00;;;3.45;;
76259;SDS011;65076;52.362;6.588;2024-01-27T05:10:34;9.55;;;4.25;;
76259;SDS011;65076;52.362;6.588;2024-01-27T05:23:06;9.90;;;2.92;;
76259;SDS011;65076;52.362;6.588;2024-01-27T05:33:02;7.53;;;3.33;;
76259;SDS011;65076;52.362;6.588;2024-01-27T05:43:10;11.55;;;2.65;;
76259;SDS011;65076;52.362;6.588;2024-01-27T05:50:54;8.50;;;3.08;;
76259;SDS011;65076;52.362;6.588;2024-01-27T05:58:27;13.05;;;3.50;;
76259;SDS011;65076;52.362;6.588;2024-01-27T06:03:27;2.78;;;1.80;;
76259;SDS011;65076;52.362;6.588;2024-01-27T06:05:59;7.38;;;2.30;;
76259;SDS011;65076;52.362;6.588;2024-01-27T06:16:09;5.55;;;2.92;;
76259;SDS011;65076;52.362;6.588;2024-01-27T06:21:10;10.25;;;4.20;;
76259;SDS011;65076;52.362;6.588;2024-01-27T06:23:43;8.13;;;3.38;;
76259;SDS011;65076;52.362;6.588;2024-01-27T06:26:14;14.43;;;4.13;;
76259;SDS011;65076;52.362;6.588;2024-01-27T06:28:46;7.18;;;3.28;;
76259;SDS011;65076;52.362;6.588;2024-01-27T06:38:57;14.63;;;4.03;;
76259;SDS011;65076;52.362;6.588;2024-01-27T06:49:03;6.35;;;3.05;;
76259;SDS011;65076;52.362;6.588;2024-01-27T06:54:03;10.80;;;2.97;;
76259;SDS011;65076;52.362;6.588;2024-01-27T06:56:36;10.85;;;4.40;;
76259;SDS011;65076;52.362;6.588;2024-01-27T07:01:45;11.65;;;5.03;;
76259;SDS011;65076;52.362;6.588;2024-01-27T07:04:18;10.90;;;3.85;;
76259;SDS011;65076;52.362;6.588;2024-01-27T07:11:50;12.75;;;5.13;;
76259;SDS011;65076;52.362;6.588;2024-01-27T07:16:50;14.20;;;4.90;;
76259;SDS011;65076;52.362;6.588;2024-01-27T07:32:06;17.75;;;14.00;;
76259;SDS011;65076;52.362;6.588;2024-01-27T07:42:20;13.93;;;4.90;;
76259;SDS011;65076;52.362;6.588;2024-01-27T07:47:21;13.13;;;6.72;;
76259;SDS011;65076;52.362;6.588;2024-01-27T07:49:56;14.65;;;5.53;;
76259;SDS011;65076;52.362;6.588;2024-01-27T07:57:28;10.10;;;4.72;;
76259;SDS011;65076;52.362;6.588;2024-01-27T08:02:34;11.27;;;6.13;;
76259;SDS011;65076;52.362;6.588;2024-01-27T08:05:09;10.50;;;5.80;;
76259;SDS011;65076;52.362;6.588;2024-01-27T08:12:41;11.23;;;5.38;;
76259;SDS011;65076;52.362;6.588;2024-01-27T08:17:42;10.93;;;5.07;;
76259;SDS011;65076;52.362;6.588;2024-01-27T08:20:17;9.63;;;4.97;;
76259;SDS011;65076;52.362;6.588;2024-01-27T08:22:50;10.27;;;4.93;;
76259;SDS011;65076;52.362;6.588;2024-01-27T08:30:22;8.95;;;4.97;;
76259;SDS011;65076;52.362;6.588;2024-01-27T08:37:58;11.45;;;4.32;;
76259;SDS011;65076;52.362;6.588;2024-01-27T08:43:00;12.13;;;5.55;;
76259;SDS011;65076;52.362;6.588;2024-01-27T08:45:33;16.02;;;5.55;;
76259;SDS011;65076;52.362;6.588;2024-01-27T08:53:08;11.35;;;4.28;;
76259;SDS011;65076;52.362;6.588;2024-01-27T08:58:09;9.32;;;5.55;;
76259;SDS011;65076;52.362;6.588;2024-01-27T09:00:41;10.63;;;4.60;;
76259;SDS011;65076;52.362;6.588;2024-01-27T09:15:52;8.40;;;3.83;;
76259;SDS011;65076;52.362;6.588;2024-01-27T09:20:53;11.35;;;6.82;;
76259;SDS011;65076;52.362;6.588;2024-01-27T09:31:10;8.52;;;4.35;;
76259;SDS011;65076;52.362;6.588;2024-01-27T09:33:43;10.73;;;4.05;;
76259;SDS011;65076;52.362;6.588;2024-01-27T09:46:16;7.35;;;3.53;;
76259;SDS011;65076;52.362;6.588;2024-01-27T09:53:52;9.55;;;4.22;;
76259;SDS011;65076;52.362;6.588;2024-01-27T10:03:57;7.95;;;4.18;;
76259;SDS011;65076;52.362;6.588;2024-01-27T10:08:58;8.52;;;3.75;;
76259;SDS011;65076;52.362;6.588;2024-01-27T10:16:27;13.20;;;4.93;;
76259;SDS011;65076;52.362;6.588;2024-01-27T10:21:29;12.70;;;6.20;;
76259;SDS011;65076;52.362;6.588;2024-01-27T10:26:30;8.95;;;3.85;;
76259;SDS011;65076;52.362;6.588;2024-01-27T10:29:02;13.57;;;7.50;;
76259;SDS011;65076;52.362;6.588;2024-01-27T10:41:51;8.38;;;4.35;;
76259;SDS011;65076;52.362;6.588;2024-01-27T10:46:50;14.70;;;5.53;;
76259;SDS011;65076;52.362;6.588;2024-01-27T10:49:22;12.10;;;4.65;;
76259;SDS011;65076;52.362;6.588;2024-01-27T10:51:58;14.55;;;5.35;;
76259;SDS011;65076;52.362;6.588;2024-01-27T10:59:36;11.80;;;6.00;;
76259;SDS011;65076;52.362;6.588;2024-01-27T11:02:11;15.07;;;6.13;;
76259;SDS011;65076;52.362;6.588;2024-01-27T11:12:26;12.70;;;5.22;;
76259;SDS011;65076;52.362;6.588;2024-01-27T11:17:28;5.63;;;3.63;;
76259;SDS011;65076;52.362;6.588;2024-01-27T11:20:08;8.77;;;4.22;;
76259;SDS011;65076;52.362;6.588;2024-01-27T11:27:49;4.57;;;2.92;;
76259;SDS011;65076;52.362;6.588;2024-01-27T11:32:48;8.85;;;2.92;;
76259;SDS011;65076;52.362;6.588;2024-01-27T11:43:00;11.80;;;3.28;;
76259;SDS011;65076;52.362;6.588;2024-01-27T11:48:00;21.40;;;8.05;;
76259;SDS011;65076;52.362;6.588;2024-01-27T11:50:32;7.32;;;3.25;;
76259;SDS011;65076;52.362;6.588;2024-01-27T12:05:38;13.65;;;5.40;;
76259;SDS011;65076;52.362;6.588;2024-01-27T12:08:11;12.68;;;6.28;;
76259;SDS011;65076;52.362;6.588;2024-01-27T12:13:15;17.00;;;7.68;;
76259;SDS011;65076;52.362;6.588;2024-01-27T12:18:17;11.10;;;4.57;;
76259;SDS011;65076;52.362;6.588;2024-01-27T12:23:18;4.13;;;2.03;;
76259;SDS011;65076;52.362;6.588;2024-01-27T12:25:52;12.05;;;4.50;;
76259;SDS011;65076;52.362;6.588;2024-01-27T12:30:53;11.73;;;4.20;;
76259;SDS011;65076;52.362;6.588;2024-01-27T12:33:28;11.23;;;4.45;;
76259;SDS011;65076;52.362;6.588;2024-01-27T12:40:59;8.65;;;3.70;;
76259;SDS011;65076;52.362;6.588;2024-01-27T12:43:31;9.07;;;2.55;;
76259;SDS011;65076;52.362;6.588;2024-01-27T12:51:04;9.38;;;4.60;;
76259;SDS011;65076;52.362;6.588;2024-01-27T12:56:04;13.75;;;3.95;;
76259;SDS011;65076;52.362;6.588;2024-01-27T12:58:35;15.30;;;4.53;;
76259;SDS011;65076;52.362;6.588;2024-01-27T13:06:10;6.10;;;2.58;;
76259;SDS011;65076;52.362;6.588;2024-01-27T13:08:43;13.77;;;4.00;;
76259;SDS011;65076;52.362;6.588;2024-01-27T13:13:47;8.32;;;3.03;;
76259;SDS011;65076;52.362;6.588;2024-01-27T13:18:47;15.43;;;5.30;;
76259;SDS011;65076;52.362;6.588;2024-01-27T13:21:22;12.88;;;4.60;;
76259;SDS011;65076;52.362;6.588;2024-01-27T13:28:52;7.13;;;2.80;;
76259;SDS011;65076;52.362;6.588;2024-01-27T13:33:53;12.35;;;4.40;;
76259;SDS011;65076;52.362;6.588;2024-01-27T13:36:27;13.00;;;4.53;;
76259;SDS011;65076;52.362;6.588;2024-01-27T13:44:03;5.47;;;2.53;;
76259;SDS011;65076;52.362;6.588;2024-01-27T13:54:10;10.27;;;3.30;;
76259;SDS011;65076;52.362;6.588;2024-01-27T14:19:32;9.02;;;3.30;;
76259;SDS011;65076;52.362;6.588;2024-01-27T14:24:51;13.13;;;4.78;;
76259;SDS011;65076;52.362;6.588;2024-01-27T14:29:55;9.68;;;4.05;;
76259;SDS011;65076;52.362;6.588;2024-01-27T14:32:29;7.20;;;3.05;;
76259;SDS011;65076;52.362;6.588;2024-01-27T14:37:35;14.52;;;3.90;;
76259;SDS011;65076;52.362;6.588;2024-01-27T14:47:37;11.18;;;5.40;;
76259;SDS011;65076;52.362;6.588;2024-01-27T14:57:34;21.65;;;10.75;;
76259;SDS011;65076;52.362;6.588;2024-01-27T15:10:12;9.50;;;2.80;;
76259;SDS011;65076;52.362;6.588;2024-01-27T15:12:44;5.00;;;2.42;;
76259;SDS011;65076;52.362;6.588;2024-01-27T15:30:12;8.35;;;2.92;;
76259;SDS011;65076;52.362;6.588;2024-01-27T15:50:05;12.10;;;4.35;;
76259;SDS011;65076;52.362;6.588;2024-01-27T15:55:08;10.30;;;3.85;;
76259;SDS011;65076;52.362;6.588;2024-01-27T15:57:40;9.18;;;3.97;;
76259;SDS011;65076;52.362;6.588;2024-01-27T16:05:13;10.70;;;4.78;;
76259;SDS011;65076;52.362;6.588;2024-01-27T16:07:46;12.85;;;5.47;;
76259;SDS011;65076;52.362;6.588;2024-01-27T16:12:46;16.25;;;5.88;;
76259;SDS011;65076;52.362;6.588;2024-01-27T16:15:18;16.92;;;6.18;;
76259;SDS011;65076;52.362;6.588;2024-01-27T16:23:04;12.90;;;5.53;;
76259;SDS011;65076;52.362;6.588;2024-01-27T16:28:04;12.07;;;4.53;;
76259;SDS011;65076;52.362;6.588;2024-01-27T16:33:07;12.05;;;4.07;;
76259;SDS011;65076;52.362;6.588;2024-01-27T16:38:10;8.82;;;4.28;;
76259;SDS011;65076;52.362;6.588;2024-01-27T16:43:10;8.88;;;3.60;;
76259;SDS011;65076;52.362;6.588;2024-01-27T16:48:13;10.45;;;3.08;;
76259;SDS011;65076;52.362;6.588;2024-01-27T16:50:45;9.82;;;4.25;;
76259;SDS011;65076;52.362;6.588;2024-01-27T16:58:21;9.85;;;3.60;;
76259;SDS011;65076;52.362;6.588;2024-01-27T17:00:53;6.90;;;3.35;;
76259;SDS011;65076;52.362;6.588;2024-01-27T17:03:26;9.55;;;3.60;;
76259;SDS011;65076;52.362;6.588;2024-01-27T17:10:58;12.50;;;4.00;;
76259;SDS011;65076;52.362;6.588;2024-01-27T17:16:01;10.95;;;3.70;;
76259;SDS011;65076;52.362;6.588;2024-01-27T17:23:32;11.63;;;5.00;;
76259;SDS011;65076;52.362;6.588;2024-01-27T17:26:03;15.10;;;4.28;;
76259;SDS011;65076;52.362;6.588;2024-01-27T17:33:36;12.52;;;4.05;;
76259;SDS011;65076;52.362;6.588;2024-01-27T17:38:37;14.35;;;4.28;;
76259;SDS011;65076;52.362;6.588;2024-01-27T17:41:08;8.98;;;4.78;;
76259;SDS011;65076;52.362;6.588;2024-01-27T17:46:08;13.20;;;4.43;;
76259;SDS011;65076;52.362;6.588;2024-01-27T17:48:46;9.25;;;4.22;;
76259;SDS011;65076;52.362;6.588;2024-01-27T17:56:21;11.05;;;4.18;;
76259;SDS011;65076;52.362;6.588;2024-01-27T18:01:20;9.80;;;4.18;;
76259;SDS011;65076;52.362;6.588;2024-01-27T18:03:55;11.63;;;4.50;;
76259;SDS011;65076;52.362;6.588;2024-01-27T18:13:55;9.77;;;4.60;;
76259;SDS011;65076;52.362;6.588;2024-01-27T18:21:27;14.93;;;4.10;;
76259;SDS011;65076;52.362;6.588;2024-01-27T18:26:27;15.15;;;5.05;;
76259;SDS011;65076;52.362;6.588;2024-01-27T18:29:00;11.90;;;5.30;;
76259;SDS011;65076;52.362;6.588;2024-01-27T18:36:36;19.30;;;5.60;;
76259;SDS011;65076;52.362;6.588;2024-01-27T18:44:09;6.00;;;3.38;;
76259;SDS011;65076;52.362;6.588;2024-01-27T18:49:09;13.02;;;4.65;;
76259;SDS011;65076;52.362;6.588;2024-01-27T18:56:41;12.07;;;5.10;;
76259;SDS011;65076;52.362;6.588;2024-01-27T19:01:42;11.60;;;5.95;;
76259;SDS011;65076;52.362;6.588;2024-01-27T19:06:42;12.15;;;5.20;;
76259;SDS011;65076;52.362;6.588;2024-01-27T19:09:14;12.95;;;5.07;;
76259;SDS011;65076;52.362;6.588;2024-01-27T19:19:16;17.33;;;7.82;;
76259;SDS011;65076;52.362;6.588;2024-01-27T19:29:15;22.77;;;8.82;;
76259;SDS011;65076;52.362;6.588;2024-01-27T19:31:49;18.88;;;10.48;;
76259;SDS011;65076;52.362;6.588;2024-01-27T19:47:02;27.42;;;12.60;;
76259;SDS011;65076;52.362;6.588;2024-01-27T19:52:04;18.95;;;10.43;;
76259;SDS011;65076;52.362;6.588;2024-01-27T19:54:41;20.23;;;9.40;;
76259;SDS011;65076;52.362;6.588;2024-01-27T19:57:20;14.00;;;7.30;;
76259;SDS011;65076;52.362;6.588;2024-01-27T20:10:00;14.73;;;7.63;;
76259;SDS011;65076;52.362;6.588;2024-01-27T20:12:33;19.10;;;9.27;;
76259;SDS011;65076;52.362;6.588;2024-01-27T20:27:45;14.75;;;8.38;;
76259;SDS011;65076;52.362;6.588;2024-01-27T20:37:52;13.07;;;6.38;;
76259;SDS011;65076;52.362;6.588;2024-01-27T20:40:25;14.05;;;6.60;;
76259;SDS011;65076;52.362;6.588;2024-01-27T20:48:00;16.52;;;6.18;;
76259;SDS011;65076;52.362;6.588;2024-01-27T20:55:33;22.23;;;11.38;;
76259;SDS011;65076;52.362;6.588;2024-01-27T21:03:05;18.17;;;7.40;;
76259;SDS011;65076;52.362;6.588;2024-01-27T21:08:05;12.75;;;6.72;;
76259;SDS011;65076;52.362;6.588;2024-01-27T21:10:36;15.73;;;6.70;;
76259;SDS011;65076;52.362;6.588;2024-01-27T21:18:13;10.90;;;5.20;;
76259;SDS011;65076;52.362;6.588;2024-01-27T21:25:49;9.60;;;5.15;;
76259;SDS011;65076;52.362;6.588;2024-01-27T21:30:48;18.27;;;6.43;;
76259;SDS011;65076;52.362;6.588;2024-01-27T21:33:26;12.90;;;5.68;;
76259;SDS011;65076;52.362;6.588;2024-01-27T21:43:27;12.38;;;5.63;;
76259;SDS011;65076;52.362;6.588;2024-01-27T21:48:32;11.73;;;5.38;;
76259;SDS011;65076;52.362;6.588;2024-01-27T21:53:33;10.57;;;5.65;;
76259;SDS011;65076;52.362;6.588;2024-01-27T21:56:06;17.38;;;6.65;;
76259;SDS011;65076;52.362;6.588;2024-01-27T22:03:38;16.38;;;7.15;;
76259;SDS011;65076;52.362;6.588;2024-01-27T22:13:41;13.75;;;6.28;;
76259;SDS011;65076;52.362;6.588;2024-01-27T22:16:13;9.20;;;5.43;;
76259;SDS011;65076;52.362;6.588;2024-01-27T22:23:47;14.50;;;6.03;;
76259;SDS011;65076;52.362;6.588;2024-01-27T22:28:52;11.20;;;5.85;;
76259;SDS011;65076;52.362;6.588;2024-01-27T22:31:24;12.80;;;6.78;;
76259;SDS011;65076;52.362;6.588;2024-01-27T22:46:35;16.58;;;7.57;;
76259;SDS011;65076;52.362;6.588;2024-01-27T22:56:34;16.17;;;5.70;;
76259;SDS011;65076;52.362;6.588;2024-01-27T23:06:37;11.60;;;5.10;;
76259;SDS011;65076;52.362;6.588;2024-01-27T23:09:09;9.80;;;4.15;;
76259;SDS011;65076;52.362;6.588;2024-01-27T23:14:16;12.32;;;5.15;;
76259;SDS011;65076;52.362;6.588;2024-01-27T23:19:16;11.82;;;5.22;;
76259;SDS011;65076;52.362;6.588;2024-01-27T23:29:26;8.32;;;4.28;;
76259;SDS011;65076;52.362;6.588;2024-01-27T23:36:56;11.90;;;5.57;;
76259;SDS011;65076;52.362;6.588;2024-01-27T23:39:36;12.98;;;5.68;;
76259;SDS011;65076;52.362;6.588;2024-01-27T23:44:36;14.90;;;5.65;;
76259;SDS011;65076;52.362;6.588;2024-01-27T23:47:08;10.82;;;4.82;;
76259;SDS011;65076;52.362;6.588;2024-01-27T23:52:13;9.90;;;5.18;;
76259;SDS011;65076;52.362;6.588;2024-01-27T23:57:16;11.57;;;4.70;;
